Time;durP1;ratioP1;P1;durP2;ratioP2;P2;SDS_P1;SDS_P2;PMS_P1;PMS_P2;Temp;Humidity;BMP_temperature;BMP_pressure;BME280_temperature;BME280_humidity;BME280_pressure;Samples;Min_cycle;Max_cycle;Signal;HPM_P1;HPM_P2
2023/04/30 00:01:54;;;;;;;11.82;7.72;;;;;;;;;;5034245;28;20029;-79
2023/04/30 00:04:45;;;;;;;15.20;7.60;;;;;;;;;;5038527;28;20040;-79
2023/04/30 00:07:11;;;;;;;12.18;7.95;;;;;;;;;;5033025;28;20041;-79
2023/04/30 00:09:36;;;;;;;15.15;7.65;;;;;;;;;;5050291;28;20371;-79
2023/04/30 00:12:01;;;;;;;12.38;7.22;;;;;;;;;;5033645;28;20033;-79
2023/04/30 00:14:27;;;;;;;15.82;7.93;;;;;;;;;;5051158;28;20045;-79
2023/04/30 00:16:52;;;;;;;12.40;7.55;;;;;;;;;;5050179;28;20051;-78
2023/04/30 00:19:18;;;;;;;15.30;8.27;;;;;;;;;;5034433;28;20527;-79
2023/04/30 00:21:43;;;;;;;13.15;8.00;;;;;;;;;;5049138;28;20078;-79
2023/04/30 00:24:09;;;;;;;13.60;7.63;;;;;;;;;;5033804;28;20029;-80
2023/04/30 00:26:34;;;;;;;12.27;7.88;;;;;;;;;;5048699;28;20055;-79
2023/04/30 00:28:59;;;;;;;;;;;;;;;;;;5052959;28;20021;-79
2023/04/30 00:31:25;;;;;;;13.43;7.45;;;;;;;;;;5051196;28;19912;-79
2023/04/30 00:33:50;;;;;;;12.10;7.20;;;;;;;;;;5050158;28;20039;-79
2023/04/30 00:36:16;;;;;;;14.02;8.32;;;;;;;;;;5050625;28;20429;-79
2023/04/30 00:38:41;;;;;;;13.02;6.80;;;;;;;;;;5032512;28;20036;-80
2023/04/30 00:41:07;;;;;;;10.13;6.85;;;;;;;;;;5033228;28;20047;-79
2023/04/30 00:43:33;;;;;;;10.93;6.88;;;;;;;;;;5049212;28;20046;-79
2023/04/30 00:45:58;;;;;;;11.38;6.32;;;;;;;;;;5034049;28;20132;-79
2023/04/30 00:48:25;;;;;;;9.65;6.63;;;;;;;;;;5036426;28;20110;-78
2023/04/30 00:50:50;;;;;;;13.60;6.30;;;;;;;;;;5034493;28;20049;-79
2023/04/30 00:53:16;;;;;;;11.75;6.28;;;;;;;;;;5035909;28;20060;-79
2023/04/30 00:55:41;;;;;;;9.63;6.05;;;;;;;;;;5034490;28;20033;-79
2023/04/30 00:58:06;;;;;;;11.50;6.22;;;;;;;;;;5052635;28;20025;-78
2023/04/30 01:00:32;;;;;;;10.40;6.13;;;;;;;;;;5050408;28;20048;-79
2023/04/30 01:02:57;;;;;;;13.38;7.22;;;;;;;;;;5032177;28;20443;-79
2023/04/30 01:05:23;;;;;;;10.65;6.35;;;;;;;;;;5032543;28;20120;-79
2023/04/30 01:07:48;;;;;;;12.10;6.55;;;;;;;;;;5048372;28;20075;-79
2023/04/30 01:10:14;;;;;;;10.32;6.10;;;;;;;;;;5032580;28;20043;-79
2023/04/30 01:12:46;;;;;;;19.33;6.50;;;;;;;;;;5017161;28;20025;-79
2023/04/30 01:15:20;;;;;;;9.18;6.53;;;;;;;;;;5031973;28;20107;-79
2023/04/30 01:17:49;;;;;;;19.90;7.30;;;;;;;;;;5048580;28;20052;-79
2023/04/30 01:20:14;;;;;;;10.30;6.75;;;;;;;;;;5048039;28;20502;-79
2023/04/30 01:22:51;;;;;;;9.02;5.93;;;;;;;;;;5035016;28;20120;-79
2023/04/30 01:25:43;;;;;;;10.40;6.15;;;;;;;;;;5057481;28;20036;-79
2023/04/30 01:28:12;;;;;;;8.48;5.70;;;;;;;;;;5050635;28;20202;-79
2023/04/30 01:30:39;;;;;;;10.15;5.93;;;;;;;;;;5052408;28;20025;-79
2023/04/30 01:33:05;;;;;;;11.40;6.13;;;;;;;;;;5057955;28;20050;-79
2023/04/30 01:35:34;;;;;;;11.32;6.28;;;;;;;;;;5032516;28;20532;-79
2023/04/30 01:38:05;;;;;;;13.90;6.07;;;;;;;;;;5032636;28;20728;-78
2023/04/30 01:40:30;;;;;;;13.43;6.35;;;;;;;;;;5053828;28;20119;-79
2023/04/30 01:43:05;;;;;;;12.55;6.13;;;;;;;;;;5055073;28;20107;-79
2023/04/30 01:45:49;;;;;;;11.77;6.35;;;;;;;;;;5037516;28;20485;-79
2023/04/30 01:48:21;;;;;;;11.60;6.28;;;;;;;;;;5035360;28;20037;-78
2023/04/30 01:50:51;;;;;;;12.85;6.57;;;;;;;;;;5039186;28;20059;-79
2023/04/30 01:53:23;;;;;;;14.52;6.45;;;;;;;;;;5056336;28;20506;-79
2023/04/30 01:55:50;;;;;;;12.50;6.65;;;;;;;;;;5041545;28;20036;-79
2023/04/30 01:58:17;;;;;;;14.43;7.57;;;;;;;;;;5052125;28;20056;-79
2023/04/30 02:00:42;;;;;;;12.02;7.43;;;;;;;;;;5041929;28;20067;-79
2023/04/30 02:03:07;;;;;;;11.40;6.93;;;;;;;;;;5052959;28;20020;-78
2023/04/30 02:05:33;;;;;;;10.93;6.80;;;;;;;;;;5021823;28;20063;-79
2023/04/30 02:07:59;;;;;;;13.23;6.75;;;;;;;;;;5034646;28;20040;-78
2023/04/30 02:10:25;;;;;;;9.82;6.70;;;;;;;;;;5054757;28;20522;-78
2023/04/30 02:12:50;;;;;;;10.27;6.32;;;;;;;;;;5039950;28;20457;-79
2023/04/30 02:15:16;;;;;;;11.38;6.68;;;;;;;;;;5041945;28;20048;-79
2023/04/30 02:17:41;;;;;;;10.85;6.53;;;;;;;;;;5042004;28;20420;-79
2023/04/30 02:20:07;;;;;;;11.48;7.05;;;;;;;;;;5038171;28;20048;-79
2023/04/30 02:22:33;;;;;;;12.60;6.75;;;;;;;;;;5058772;28;20132;-78
2023/04/30 02:24:58;;;;;;;9.07;6.15;;;;;;;;;;5059088;28;20123;-78
2023/04/30 02:27:25;;;;;;;8.60;5.78;;;;;;;;;;5057816;28;20120;-78
2023/04/30 02:29:50;;;;;;;9.57;6.25;;;;;;;;;;5034589;28;20037;-79
2023/04/30 02:32:16;;;;;;;8.40;6.40;;;;;;;;;;5034942;28;20032;-79
2023/04/30 02:34:42;;;;;;;12.65;6.05;;;;;;;;;;5035619;28;20037;-79
2023/04/30 02:37:07;;;;;;;9.38;5.80;;;;;;;;;;5035313;28;20439;-79
2023/04/30 02:39:33;;;;;;;8.50;6.00;;;;;;;;;;5050927;28;20518;-79
2023/04/30 02:41:58;;;;;;;10.57;5.90;;;;;;;;;;5052255;28;20483;-79
2023/04/30 02:44:24;;;;;;;9.98;5.60;;;;;;;;;;5052545;28;20496;-78
2023/04/30 02:46:49;;;;;;;8.70;6.25;;;;;;;;;;5052271;28;20033;-79
2023/04/30 02:49:15;;;;;;;13.27;6.00;;;;;;;;;;5034537;28;20041;-79
2023/04/30 02:51:40;;;;;;;12.18;6.15;;;;;;;;;;5051879;28;20055;-79
2023/04/30 02:54:06;;;;;;;10.52;7.13;;;;;;;;;;5034682;28;20029;-79
2023/04/30 02:56:31;;;;;;;10.05;6.68;;;;;;;;;;5051653;28;20103;-79
2023/04/30 02:58:57;;;;;;;10.95;6.30;;;;;;;;;;5051800;28;20083;-79
2023/04/30 03:01:22;;;;;;;11.05;6.85;;;;;;;;;;5034136;28;20426;-79
2023/04/30 03:03:48;;;;;;;12.90;6.55;;;;;;;;;;5051656;28;20083;-79
2023/04/30 03:06:13;;;;;;;9.98;6.65;;;;;;;;;;5051626;28;20036;-78
2023/04/30 03:08:39;;;;;;;9.55;5.78;;;;;;;;;;5050514;28;20033;-79
2023/04/30 03:11:04;;;;;;;;;;;;;;;;;;5034621;28;20508;-79
2023/04/30 03:13:30;;;;;;;11.55;5.75;;;;;;;;;;5051610;28;19969;-79
2023/04/30 03:15:56;;;;;;;8.65;6.30;;;;;;;;;;5050965;28;20113;-79
2023/04/30 03:18:21;;;;;;;;;;;;;;;;;;5035312;28;20106;-79
2023/04/30 03:20:47;;;;;;;7.00;5.28;;;;;;;;;;5052093;28;19983;-79
2023/04/30 03:23:13;;;;;;;9.80;6.35;;;;;;;;;;5051508;28;20049;-80
2023/04/30 03:25:38;;;;;;;10.80;6.00;;;;;;;;;;5052777;28;20369;-79
2023/04/30 03:28:05;;;;;;;10.68;7.00;;;;;;;;;;5052063;28;20036;-79
2023/04/30 03:30:30;;;;;;;10.07;6.45;;;;;;;;;;5051415;28;20154;-79
2023/04/30 03:32:56;;;;;;;9.32;6.57;;;;;;;;;;5052816;28;20067;-79
2023/04/30 03:35:21;;;;;;;9.75;6.78;;;;;;;;;;5050658;28;20036;-79
2023/04/30 03:37:46;;;;;;;11.23;7.45;;;;;;;;;;5034126;28;20045;-79
2023/04/30 03:40:12;;;;;;;9.07;7.00;;;;;;;;;;5051456;28;20107;-79
2023/04/30 03:42:38;;;;;;;10.48;7.40;;;;;;;;;;5051661;28;20385;-79
2023/04/30 03:45:03;;;;;;;11.27;8.35;;;;;;;;;;5034263;28;20024;-80
2023/04/30 03:47:29;;;;;;;11.85;8.85;;;;;;;;;;5051469;28;20064;-79
2023/04/30 03:49:54;;;;;;;13.25;9.23;;;;;;;;;;5033885;28;20572;-80
2023/04/30 03:52:21;;;;;;;10.70;7.88;;;;;;;;;;5034784;28;20446;-78
2023/04/30 03:54:47;;;;;;;12.05;8.23;;;;;;;;;;5051194;28;20159;-80
2023/04/30 03:57:13;;;;;;;;;;;;;;;;;;5034769;28;20033;-79
2023/04/30 03:59:39;;;;;;;12.52;8.25;;;;;;;;;;5052188;28;19915;-79
2023/04/30 04:02:06;;;;;;;11.50;8.15;;;;;;;;;;5033620;28;20037;-78
2023/04/30 04:04:32;;;;;;;11.70;7.13;;;;;;;;;;5034040;28;20021;-79
2023/04/30 04:06:58;;;;;;;10.60;7.05;;;;;;;;;;5050597;28;20068;-78
2023/04/30 04:09:23;;;;;;;10.95;7.32;;;;;;;;;;5031414;28;20432;-78
2023/04/30 04:11:49;;;;;;;10.10;6.13;;;;;;;;;;5045730;28;20381;-79
2023/04/30 04:14:15;;;;;;;;;;;;;;;;;;5036589;28;20132;-79
2023/04/30 04:16:41;;;;;;;11.25;6.05;;;;;;;;;;5050452;28;19912;-79
2023/04/30 04:19:06;;;;;;;15.48;5.50;;;;;;;;;;5035924;28;20041;-79
2023/04/30 04:21:33;;;;;;;8.10;4.95;;;;;;;;;;5033864;28;20048;-78
2023/04/30 04:24:07;;;;;;;8.02;5.25;;;;;;;;;;5052156;28;20450;-79
2023/04/30 04:26:33;;;;;;;8.15;4.80;;;;;;;;;;5035472;28;20037;-79
2023/04/30 04:28:59;;;;;;;8.07;4.25;;;;;;;;;;5052340;28;20650;-79
2023/04/30 04:31:25;;;;;;;6.53;3.90;;;;;;;;;;5052267;28;20035;-78
2023/04/30 04:33:56;;;;;;;;;;;;;;;;;;5052854;28;20044;-79
2023/04/30 04:36:22;;;;;;;8.13;3.72;;;;;;;;;;5051730;28;19970;-79
2023/04/30 04:38:48;;;;;;;7.00;3.53;;;;;;;;;;5049835;28;20110;-78
2023/04/30 04:41:13;;;;;;;6.38;3.28;;;;;;;;;;5033135;28;20039;-78
2023/04/30 04:43:39;;;;;;;4.88;3.00;;;;;;;;;;5048812;28;20028;-78
2023/04/30 04:46:07;;;;;;;6.65;3.47;;;;;;;;;;5048611;28;20392;-78
2023/04/30 04:48:33;;;;;;;5.45;3.10;;;;;;;;;;5032909;28;20466;-78
2023/04/30 04:50:58;;;;;;;5.38;2.75;;;;;;;;;;5015960;28;20128;-80
2023/04/30 04:53:24;;;;;;;4.63;3.13;;;;;;;;;;5049243;28;20029;-80
2023/04/30 04:55:49;;;;;;;;;;;;;;;;;;5050267;28;20044;-79
2023/04/30 04:58:15;;;;;;;5.72;2.60;;;;;;;;;;5036656;28;19912;-80
2023/04/30 05:00:40;;;;;;;;;;;;;;;;;;5037599;28;20036;-80
2023/04/30 05:03:06;;;;;;;8.02;3.10;;;;;;;;;;5053630;28;19978;-79
2023/04/30 05:05:31;;;;;;;;;;;;;;;;;;5055803;28;20065;-80
2023/04/30 05:07:56;;;;;;;8.55;3.40;;;;;;;;;;5052796;28;19920;-81
2023/04/30 05:10:22;;;;;;;;;;;;;;;;;;5037580;28;20040;-79
2023/04/30 05:12:47;;;;;;;6.40;2.65;;;;;;;;;;5054460;28;19909;-80
2023/04/30 05:15:13;;;;;;;6.82;2.70;;;;;;;;;;5053315;28;20029;-79
2023/04/30 05:17:38;;;;;;;;;;;;;;;;;;5037459;28;20458;-80
2023/04/30 05:20:06;;;;;;;7.85;2.63;;;;;;;;;;5055203;28;19924;-78
2023/04/30 05:22:31;;;;;;;5.80;2.50;;;;;;;;;;5036819;28;20082;-78
2023/04/30 05:24:56;;;;;;;;;;;;;;;;;;5037280;28;20476;-79
2023/04/30 05:27:22;;;;;;;4.10;2.40;;;;;;;;;;5053290;28;19917;-79
2023/04/30 05:29:47;;;;;;;4.85;2.63;;;;;;;;;;5056327;28;20379;-79
2023/04/30 05:32:12;;;;;;;;;;;;;;;;;;5054407;28;20061;-78
2023/04/30 05:34:38;;;;;;;4.32;2.17;;;;;;;;;;5054020;28;19912;-79
2023/04/30 05:37:03;;;;;;;4.30;2.60;;;;;;;;;;5053160;28;20088;-79
2023/04/30 05:39:29;;;;;;;;;;;;;;;;;;5052150;28;20045;-79
2023/04/30 05:41:55;;;;;;;6.20;3.00;;;;;;;;;;5051636;28;19915;-79
2023/04/30 05:44:20;;;;;;;;;;;;;;;;;;5055541;28;20038;-79
2023/04/30 05:46:46;;;;;;;8.52;2.50;;;;;;;;;;5072603;28;20374;-79
2023/04/30 05:49:11;;;;;;;;;;;;;;;;;;5051836;28;20041;-79
2023/04/30 05:51:37;;;;;;;8.93;2.60;;;;;;;;;;5058982;28;19914;-79
2023/04/30 05:54:03;;;;;;;4.18;2.40;;;;;;;;;;5064566;28;20029;-79
2023/04/30 05:56:28;;;;;;;12.98;3.00;;;;;;;;;;5068279;28;20041;-79
2023/04/30 05:58:54;;;;;;;;;;;;;;;;;;5056672;28;20047;-79
2023/04/30 06:01:19;;;;;;;6.07;2.47;;;;;;;;;;5052865;28;20438;-79
2023/04/30 06:03:45;;;;;;;4.13;2.30;;;;;;;;;;5035484;28;20041;-79
2023/04/30 06:06:10;;;;;;;;;;;;;;;;;;5052160;28;20127;-78
2023/04/30 06:08:36;;;;;;;4.63;2.35;;;;;;;;;;5053062;28;20398;-79
2023/04/30 06:11:03;;;;;;;;;;;;;;;;;;5064050;28;20039;-80
2023/04/30 06:13:30;;;;;;;5.70;2.38;;;;;;;;;;5056889;28;19939;-80
2023/04/30 06:15:56;;;;;;;5.45;2.42;;;;;;;;;;5051311;28;20045;-80
2023/04/30 06:18:21;;;;;;;;;;;;;;;;;;5036291;28;20509;-79
2023/04/30 06:20:46;;;;;;;10.32;2.47;;;;;;;;;;5052639;28;19940;-80
2023/04/30 06:23:12;;;;;;;;;;;;;;;;;;5037039;28;20047;-80
2023/04/30 06:25:38;;;;;;;3.70;2.10;;;;;;;;;;5066640;28;19909;-81
2023/04/30 06:28:03;;;;;;;;;;;;;;;;;;5053381;28;20048;-80
2023/04/30 06:30:30;;;;;;;3.65;2.00;;;;;;;;;;5052729;28;19909;-80
2023/04/30 06:32:55;;;;;;;3.65;2.20;;;;;;;;;;5035407;28;20486;-80
2023/04/30 06:35:21;;;;;;;;;;;;;;;;;;5057547;28;20025;-80
2023/04/30 06:37:46;;;;;;;3.95;2.30;;;;;;;;;;5050754;28;19917;-79
2023/04/30 06:40:12;;;;;;;;;;;;;;;;;;5037336;28;20063;-80
2023/04/30 06:42:37;;;;;;;9.00;2.35;;;;;;;;;;5052816;28;20367;-80
2023/04/30 06:45:03;;;;;;;;;;;;;;;;;;5055501;28;20452;-80
2023/04/30 06:47:36;;;;;;;5.30;2.30;;;;;;;;;;5053413;28;19917;-80
2023/04/30 06:50:02;;;;;;;6.15;2.38;;;;;;;;;;5041063;28;20029;-80
2023/04/30 06:52:27;;;;;;;;;;;;;;;;;;5037200;28;20509;-80
2023/04/30 06:54:53;;;;;;;7.97;4.75;;;;;;;;;;5052168;28;19912;-81
2023/04/30 06:57:18;;;;;;;;;;;;;;;;;;5053508;28;20039;-80
2023/04/30 06:59:43;;;;;;;3.45;2.00;;;;;;;;;;5051014;28;19919;-81
2023/04/30 07:02:09;;;;;;;;;;;;;;;;;;5050782;28;20041;-81
2023/04/30 07:04:59;;;;;;;9.88;2.38;;;;;;;;;;5051558;28;20381;-81
2023/04/30 07:07:25;;;;;;;;;;;;;;;;;;5050577;28;20033;-81
2023/04/30 07:09:52;;;;;;;4.68;2.17;;;;;;;;;;5051717;28;19908;-80
2023/04/30 07:12:17;;;;;;;5.43;2.10;;;;;;;;;;5051534;28;20514;-81
2023/04/30 07:14:43;;;;;;;;;;;;;;;;;;5051341;28;20143;-81
2023/04/30 07:17:10;;;;;;;7.45;2.08;;;;;;;;;;5050928;28;20852;-80
2023/04/30 07:19:35;;;;;;;10.98;1.98;;;;;;;;;;5050062;28;20021;-80
2023/04/30 07:22:00;;;;;;;;;;;;;;;;;;5052632;28;20028;-80
2023/04/30 07:24:26;;;;;;;5.53;2.03;;;;;;;;;;5052175;28;19909;-78
2023/04/30 07:26:52;;;;;;;;;;;;;;;;;;5033556;28;20075;-79
2023/04/30 07:29:17;;;;;;;6.32;1.92;;;;;;;;;;5050096;28;19958;-80
2023/04/30 07:31:43;;;;;;;;;;;;;;;;;;5051728;28;20037;-79
2023/04/30 07:34:08;;;;;;;6.10;1.92;;;;;;;;;;5050179;28;19916;-79
2023/04/30 07:36:34;;;;;;;;;;;;;;;;;;5050737;28;20067;-79
2023/04/30 07:38:59;;;;;;;4.13;2.22;;;;;;;;;;5051248;28;20384;-80
2023/04/30 07:41:25;;;;;;;;;;;;;;;;;;5050213;28;20448;-80
2023/04/30 07:43:50;;;;;;;6.53;2.53;;;;;;;;;;5051682;28;19908;-79
2023/04/30 07:46:17;;;;;;;5.50;2.35;;;;;;;;;;5033253;28;20037;-80
2023/04/30 07:48:42;;;;;;;;;;;;;;;;;;5050968;28;20032;-79
2023/04/30 07:51:07;;;;;;;4.97;2.28;;;;;;;;;;5050747;28;19962;-80
2023/04/30 07:53:33;;;;;;;;;;;;;;;;;;5051835;28;20368;-79
2023/04/30 07:55:58;;;;;;;4.47;2.60;;;;;;;;;;5053992;28;20378;-78
2023/04/30 07:58:23;;;;;;;;;;;;;;;;;;5052440;28;20029;-80
2023/04/30 08:00:49;;;;;;;8.00;2.95;;;;;;;;;;5049294;28;19921;-79
2023/04/30 08:03:14;;;;;;;;;;;;;;;;;;5050876;28;20399;-79
2023/04/30 08:05:40;;;;;;;7.63;2.63;;;;;;;;;;5057554;28;19912;-79
2023/04/30 08:08:05;;;;;;;;;;;;;;;;;;5053323;28;20024;-80
2023/04/30 08:10:31;;;;;;;5.43;2.63;;;;;;;;;;5057406;28;20410;-80
2023/04/30 08:12:56;;;;;;;;;;;;;;;;;;5053250;28;20047;-79
2023/04/30 08:15:22;;;;;;;5.85;2.50;;;;;;;;;;5056938;28;20010;-79
2023/04/30 08:17:47;;;;;;;;;;;;;;;;;;5036825;28;20041;-80
2023/04/30 08:20:13;;;;;;;5.88;2.75;;;;;;;;;;5054157;28;19920;-80
2023/04/30 08:22:38;;;;;;;;;;;;;;;;;;5055482;28;20032;-80
2023/04/30 08:25:04;;;;;;;7.78;3.30;;;;;;;;;;5049785;28;20386;-80
2023/04/30 08:27:29;;;;;;;;;;;;;;;;;;5050186;28;20079;-80
2023/04/30 08:29:55;;;;;;;4.95;2.30;;;;;;;;;;5060448;28;19919;-79
2023/04/30 08:32:20;;;;;;;;;;;;;;;;;;5060317;28;20397;-80
2023/04/30 08:34:45;;;;;;;6.78;2.33;;;;;;;;;;5056584;28;20349;-80
2023/04/30 08:37:11;;;;;;;;;;;;;;;;;;5049049;28;20064;-80
2023/04/30 08:39:36;;;;;;;10.25;3.22;;;;;;;;;;5049851;28;19935;-81
2023/04/30 08:42:02;;;;;;;;;;;;;;;;;;5050260;28;20037;-78
2023/04/30 08:44:28;;;;;;;7.60;4.32;;;;;;;;;;5049925;28;19931;-80
2023/04/30 08:46:53;;;;;;;;;;;;;;;;;;5050285;28;20033;-79
2023/04/30 08:49:22;;;;;;;6.78;3.40;;;;;;;;;;5051241;28;19940;-79
2023/04/30 08:51:47;;;;;;;6.47;3.35;;;;;;;;;;5033370;28;20043;-81
2023/04/30 08:54:13;;;;;;;;;;;;;;;;;;5054009;28;20025;-80
2023/04/30 08:56:39;;;;;;;6.55;3.50;;;;;;;;;;5050939;28;19909;-81
2023/04/30 08:59:05;;;;;;;3.47;2.08;;;;;;;;;;5052399;28;20038;-80
2023/04/30 09:01:30;;;;;;;;;;;;;;;;;;5050977;28;20040;-78
2023/04/30 09:03:56;;;;;;;6.28;4.05;;;;;;;;;;5053423;28;19943;-80
2023/04/30 09:06:22;;;;;;;7.85;3.38;;;;;;;;;;5048667;28;20036;-80
2023/04/30 09:08:48;;;;;;;;;;;;;;;;;;5055459;28;20021;-80
2023/04/30 09:11:24;;;;;;;4.90;2.95;;;;;;;;;;5051325;28;19908;-79
2023/04/30 09:13:51;;;;;;;5.57;2.90;;;;;;;;;;5038181;28;20060;-80
2023/04/30 09:16:17;;;;;;;7.60;3.38;;;;;;;;;;5035339;28;20403;-80
2023/04/30 09:18:42;;;;;;;;;;;;;;;;;;5038778;28;20032;-80
2023/04/30 09:21:08;;;;;;;7.13;2.90;;;;;;;;;;5051616;28;19916;-78
2023/04/30 09:23:33;;;;;;;;;;;;;;;;;;5052362;28;20029;-79
2023/04/30 09:25:59;;;;;;;5.60;3.10;;;;;;;;;;5048719;28;19915;-80
2023/04/30 09:28:27;;;;;;;5.65;3.10;;;;;;;;;;5048855;28;20048;-79
2023/04/30 09:30:53;;;;;;;9.90;3.25;;;;;;;;;;5049206;28;20075;-81
2023/04/30 09:33:19;;;;;;;;;;;;;;;;;;5050098;28;20048;-81
2023/04/30 09:35:45;;;;;;;5.95;2.50;;;;;;;;;;5050091;28;19966;-80
2023/04/30 09:38:32;;;;;;;4.32;2.67;;;;;;;;;;5047501;28;20123;-80
2023/04/30 09:40:57;;;;;;;;;;;;;;;;;;5032081;28;20041;-81
2023/04/30 09:43:23;;;;;;;4.72;2.20;;;;;;;;;;5051133;28;20284;-81
2023/04/30 09:45:51;;;;;;;;;;;;;;;;;;5036804;28;20048;-81
2023/04/30 09:48:17;;;;;;;3.92;1.80;;;;;;;;;;5053057;28;20298;-80
2023/04/30 09:50:43;;;;;;;;;;;;;;;;;;5052742;28;20037;-79
2023/04/30 09:53:12;;;;;;;4.95;1.90;;;;;;;;;;5053337;28;19915;-79
2023/04/30 09:55:37;;;;;;;4.30;1.98;;;;;;;;;;5036822;28;20078;-79
2023/04/30 09:58:03;;;;;;;;;;;;;;;;;;5053051;28;20025;-80
2023/04/30 10:00:29;;;;;;;3.17;1.63;;;;;;;;;;5053096;28;19913;-81
2023/04/30 10:02:54;;;;;;;3.40;1.90;;;;;;;;;;5032378;28;20039;-80
2023/04/30 10:05:20;;;;;;;;;;;;;;;;;;5047929;28;20123;-80
2023/04/30 10:07:45;;;;;;;6.40;1.60;;;;;;;;;;5053169;28;19958;-79
2023/04/30 10:10:11;;;;;;;;;;;;;;;;;;5052877;28;20051;-80
2023/04/30 10:12:44;;;;;;;4.30;1.70;;;;;;;;;;5051955;28;19915;-80
2023/04/30 10:15:29;;;;;;;5.45;2.05;;;;;;;;;;5036253;28;20056;-80
2023/04/30 10:18:04;;;;;;;4.68;1.90;;;;;;;;;;5052579;28;20045;-80
2023/04/30 10:20:30;;;;;;;4.15;1.90;;;;;;;;;;5052387;28;20039;-80
2023/04/30 10:22:56;;;;;;;;;;;;;;;;;;5052683;28;20112;-80
2023/04/30 10:25:22;;;;;;;4.50;1.90;;;;;;;;;;5053712;28;19923;-80
2023/04/30 10:27:47;;;;;;;4.68;1.77;;;;;;;;;;5052748;28;20107;-79
2023/04/30 10:30:13;;;;;;;;;;;;;;;;;;5053246;28;20040;-79
2023/04/30 10:32:44;;;;;;;4.78;1.80;;;;;;;;;;5052707;28;20010;-79
2023/04/30 10:35:13;;;;;;;5.80;2.15;;;;;;;;;;5052129;28;20118;-80
2023/04/30 10:37:41;;;;;;;6.55;1.77;;;;;;;;;;5054355;28;20127;-79
2023/04/30 10:40:08;;;;;;;4.15;1.90;;;;;;;;;;5054374;28;20041;-80
2023/04/30 10:42:34;;;;;;;6.63;2.00;;;;;;;;;;5053634;28;20159;-79
2023/04/30 10:45:02;;;;;;;4.25;1.60;;;;;;;;;;5041472;28;20041;-78
2023/04/30 10:47:27;;;;;;;9.65;2.00;;;;;;;;;;5052346;28;20032;-78
2023/04/30 10:49:53;;;;;;;;;;;;;;;;;;5058621;28;20041;-80
2023/04/30 10:52:28;;;;;;;5.50;1.88;;;;;;;;;;5056037;28;19957;-81
2023/04/30 10:54:54;;;;;;;9.00;2.05;;;;;;;;;;5057569;28;20488;-79
2023/04/30 10:57:19;;;;;;;;;;;;;;;;;;5055056;28;20028;-79
2023/04/30 11:00:13;;;;;;;4.30;2.15;;;;;;;;;;5054500;28;19912;-79
2023/04/30 11:02:39;;;;;;;5.60;2.40;;;;;;;;;;5057503;28;20422;-79
2023/04/30 11:05:05;;;;;;;6.15;2.47;;;;;;;;;;5055250;28;20491;-79
2023/04/30 11:07:30;;;;;;;;;;;;;;;;;;5061246;28;20039;-79
2023/04/30 11:09:55;;;;;;;2.92;1.80;;;;;;;;;;5051390;28;19990;-79
2023/04/30 11:12:27;;;;;;;;;;;;;;;;;;5051149;28;20032;-79
2023/04/30 11:14:53;;;;;;;4.28;2.13;;;;;;;;;;5050233;28;19928;-79
2023/04/30 11:17:22;;;;;;;5.05;1.92;;;;;;;;;;5050983;28;20111;-79
2023/04/30 11:19:48;;;;;;;4.50;1.90;;;;;;;;;;5050696;28;20400;-79
2023/04/30 11:22:13;;;;;;;;;;;;;;;;;;5033549;28;20033;-80
2023/04/30 11:25:14;;;;;;;4.13;2.20;;;;;;;;;;5050111;28;19913;-80
2023/04/30 11:27:41;;;;;;;4.55;2.08;;;;;;;;;;5018675;28;20048;-80
2023/04/30 11:30:16;;;;;;;6.22;2.40;;;;;;;;;;5051236;28;20025;-81
2023/04/30 11:32:46;;;;;;;5.03;2.28;;;;;;;;;;5055881;28;20551;-80
2023/04/30 11:35:11;;;;;;;6.28;2.40;;;;;;;;;;5033599;28;20025;-80
2023/04/30 11:37:37;;;;;;;;;;;;;;;;;;5054447;28;20171;-80
2023/04/30 11:40:12;;;;;;;4.45;2.08;;;;;;;;;;5050391;28;19916;-80
2023/04/30 11:42:38;;;;;;;6.95;2.38;;;;;;;;;;5033514;28;20043;-80
2023/04/30 11:45:03;;;;;;;;;;;;;;;;;;5018064;28;20111;-80
2023/04/30 11:47:38;;;;;;;4.22;2.38;;;;;;;;;;5050740;28;20062;-80
2023/04/30 11:50:31;;;;;;;7.60;2.50;;;;;;;;;;5050641;28;20052;-80
2023/04/30 11:52:57;;;;;;;4.30;1.98;;;;;;;;;;5051647;28;20029;-79
2023/04/30 11:55:22;;;;;;;;;;;;;;;;;;5050896;28;20499;-80
2023/04/30 11:57:49;;;;;;;6.88;2.38;;;;;;;;;;5053132;28;19912;-81
2023/04/30 12:00:14;;;;;;;;;;;;;;;;;;5031589;28;20029;-79
2023/04/30 12:02:40;;;;;;;5.35;2.15;;;;;;;;;;5052443;28;20265;-79
2023/04/30 12:05:19;;;;;;;7.18;2.75;;;;;;;;;;5049785;28;20028;-79
2023/04/30 12:07:45;;;;;;;4.20;2.22;;;;;;;;;;5033850;28;20029;-80
2023/04/30 12:10:11;;;;;;;8.00;2.03;;;;;;;;;;5052032;28;20436;-80
2023/04/30 12:12:36;;;;;;;;;;;;;;;;;;5034181;28;20029;-79
2023/04/30 12:15:12;;;;;;;4.05;2.33;;;;;;;;;;5052444;28;19928;-80
2023/04/30 12:17:38;;;;;;;6.22;2.40;;;;;;;;;;5050536;28;20122;-80
2023/04/30 12:20:04;;;;;;;;;;;;;;;;;;5050672;28;20074;-79
2023/04/30 12:22:29;;;;;;;5.38;2.45;;;;;;;;;;5051365;28;19912;-80
2023/04/30 12:24:55;;;;;;;;;;;;;;;;;;5050279;28;20082;-80
2023/04/30 12:27:21;;;;;;;4.47;2.47;;;;;;;;;;5050951;28;19916;-79
2023/04/30 12:29:47;;;;;;;;;;;;;;;;;;5050096;28;20116;-80
2023/04/30 12:32:17;;;;;;;5.40;2.40;;;;;;;;;;5050489;28;19963;-80
2023/04/30 12:34:43;;;;;;;5.07;2.22;;;;;;;;;;5050123;28;20128;-80
2023/04/30 12:37:08;;;;;;;;;;;;;;;;;;5050580;28;20147;-79
2023/04/30 12:39:34;;;;;;;4.70;2.10;;;;;;;;;;5051370;28;20336;-79
2023/04/30 12:41:59;;;;;;;;;;;;;;;;;;5051147;28;20040;-79
2023/04/30 12:44:26;;;;;;;4.93;2.53;;;;;;;;;;5049970;28;20367;-79
2023/04/30 12:46:55;;;;;;;6.05;2.22;;;;;;;;;;5048869;28;20037;-79
2023/04/30 12:49:27;;;;;;;7.20;2.20;;;;;;;;;;5050197;28;20143;-79
2023/04/30 12:52:00;;;;;;;6.63;2.10;;;;;;;;;;5048923;28;20033;-80
2023/04/30 12:54:26;;;;;;;7.85;2.50;;;;;;;;;;5032048;28;20446;-80
2023/04/30 12:56:51;;;;;;;;;;;;;;;;;;5049648;28;20033;-80
2023/04/30 12:59:17;;;;;;;7.63;2.50;;;;;;;;;;5049017;28;19966;-80
2023/04/30 13:01:42;;;;;;;;;;;;;;;;;;5049836;28;20036;-80
2023/04/30 13:04:08;;;;;;;3.70;2.30;;;;;;;;;;5050215;28;19936;-81
2023/04/30 13:06:34;;;;;;;;;;;;;;;;;;5049946;28;20025;-79
2023/04/30 13:08:59;;;;;;;4.25;2.10;;;;;;;;;;5049958;28;19919;-80
2023/04/30 13:11:25;;;;;;;;;;;;;;;;;;5051076;28;20039;-79
2023/04/30 13:13:50;;;;;;;5.18;2.17;;;;;;;;;;5048973;28;19921;-79
2023/04/30 13:16:16;;;;;;;;;;;;;;;;;;5049796;28;20033;-79
2023/04/30 13:18:42;;;;;;;6.03;2.22;;;;;;;;;;5037148;28;19974;-82
2023/04/30 13:21:08;;;;;;;;;;;;;;;;;;5020622;28;20032;-79
2023/04/30 13:23:33;;;;;;;6.43;2.25;;;;;;;;;;5052174;28;19998;-80
2023/04/30 13:25:58;;;;;;;;;;;;;;;;;;5055296;28;20535;-80
2023/04/30 13:28:24;;;;;;;8.07;2.20;;;;;;;;;;5053832;28;19924;-79
2023/04/30 13:30:49;;;;;;;;;;;;;;;;;;5053666;28;20472;-79
2023/04/30 13:33:15;;;;;;;5.72;2.00;;;;;;;;;;5053570;28;19913;-80
2023/04/30 13:35:41;;;;;;;;;;;;;;;;;;5054231;28;20027;-80
2023/04/30 13:38:06;;;;;;;4.07;1.90;;;;;;;;;;5053358;28;19924;-80
2023/04/30 13:40:32;;;;;;;;;;;;;;;;;;5036102;28;20491;-80
2023/04/30 13:42:57;;;;;;;3.70;1.85;;;;;;;;;;5053590;28;20561;-79
2023/04/30 13:45:22;;;;;;;5.47;2.17;;;;;;;;;;5035403;28;20075;-80
2023/04/30 13:47:48;;;;;;;;;;;;;;;;;;5036071;28;20041;-80
2023/04/30 13:50:13;;;;;;;5.82;2.17;;;;;;;;;;5052182;28;20012;-79
2023/04/30 13:52:39;;;;;;;;;;;;;;;;;;5036595;28;20029;-79
2023/04/30 13:55:05;;;;;;;6.28;2.42;;;;;;;;;;5051933;28;19908;-79
2023/04/30 13:57:32;;;;;;;;;;;;;;;;;;5052442;28;20132;-79
2023/04/30 13:59:57;;;;;;;4.78;2.47;;;;;;;;;;5052232;28;19909;-80
2023/04/30 14:02:23;;;;;;;;;;;;;;;;;;5065172;28;20079;-80
2023/04/30 14:04:48;;;;;;;4.72;2.22;;;;;;;;;;5051870;28;20295;-80
2023/04/30 14:07:13;;;;;;;;;;;;;;;;;;5053625;28;20040;-80
2023/04/30 14:09:39;;;;;;;7.65;2.80;;;;;;;;;;5052803;28;19909;-80
2023/04/30 14:12:05;;;;;;;6.35;2.63;;;;;;;;;;5051546;28;20031;-81
2023/04/30 14:14:30;;;;;;;;;;;;;;;;;;5053526;28;20412;-82
2023/04/30 14:16:56;;;;;;;5.22;2.30;;;;;;;;;;5053239;28;19912;-79
2023/04/30 14:19:22;;;;;;;;;;;;;;;;;;5053230;28;20557;-80
2023/04/30 14:21:47;;;;;;;;;;;;;;;;;;5055832;28;19913;-81
2023/04/30 14:24:14;;;;;;;;;;;;;;;;;;5053315;28;19931;-79
2023/04/30 14:26:39;;;;;;;;;;;;;;;;;;5055687;28;19920;-80
2023/04/30 14:29:05;;;;;;;;;;;;;;;;;;5050955;28;19909;-80
2023/04/30 14:31:30;;;;;;;;;;;;;;;;;;5051918;28;19921;-79
2023/04/30 14:33:55;;;;;;;;;;;;;;;;;;5056036;28;20387;-82
2023/04/30 14:36:21;;;;;;;;;;;;;;;;;;5053223;28;19920;-79
2023/04/30 14:38:46;;;;;;;;;;;;;;;;;;5052878;28;19919;-81
2023/04/30 14:41:11;;;;;;;;;;;;;;;;;;5053070;28;19939;-81
2023/04/30 14:43:37;;;;;;;;;;;;;;;;;;5051620;28;19931;-80
2023/04/30 14:46:02;;;;;;;;;;;;;;;;;;5053158;28;19912;-80
2023/04/30 14:48:28;;;;;;;;;;;;;;;;;;5052804;28;19978;-80
2023/04/30 14:50:53;;;;;;;;;;;;;;;;;;5052239;28;19916;-80
2023/04/30 14:53:18;;;;;;;;;;;;;;;;;;5052767;28;19952;-80
2023/04/30 14:55:44;;;;;;;;;;;;;;;;;;5050744;28;19916;-80
2023/04/30 14:58:09;;;;;;;;;;;;;;;;;;5052768;28;19958;-80
2023/04/30 15:00:35;;;;;;;;;;;;;;;;;;5052818;28;19913;-81
2023/04/30 15:03:00;;;;;;;;;;;;;;;;;;5052984;28;19953;-79
2023/04/30 15:05:25;;;;;;;;;;;;;;;;;;5053225;28;19912;-83
2023/04/30 15:07:51;;;;;;;;;;;;;;;;;;5055062;28;20011;-80
2023/04/30 15:10:16;;;;;;;;;;;;;;;;;;5055686;28;19948;-80
2023/04/30 15:12:42;;;;;;;;;;;;;;;;;;5057995;28;19920;-79